createdAt,value
2023-04-18T01:20:41.481Z,103044.03
2023-04-18T01:23:10.326Z,103084.00
2023-04-18T01:25:37.311Z,103060.16
2023-04-18T01:28:04.752Z,103084.28
2023-04-18T01:30:31.181Z,103062.03
2023-04-18T01:32:57.604Z,103083.03
2023-04-18T01:35:24.023Z,103077.31
2023-04-18T01:37:50.448Z,103081.72
2023-04-18T01:40:16.964Z,103080.75
2023-04-18T01:42:43.458Z,103077.00
2023-04-18T01:45:11.877Z,103065.66
2023-04-18T01:47:38.289Z,103041.63
2023-04-18T01:50:05.653Z,103076.94
2023-04-18T01:52:32.080Z,103077.69
2023-04-18T01:54:58.582Z,103040.75
2023-04-18T01:57:25.023Z,103074.63
2023-04-18T01:59:51.474Z,103065.47
2023-04-18T02:02:17.900Z,103067.34
2023-04-18T02:04:44.368Z,103058.00
2023-04-18T02:07:10.781Z,103071.19
2023-04-18T02:09:37.152Z,103067.72
2023-04-18T02:12:03.667Z,103069.63
2023-04-18T02:14:31.948Z,103075.72
2023-04-18T02:16:59.189Z,103071.13
2023-04-18T02:19:25.692Z,103071.59
2023-04-18T02:21:52.067Z,103074.41
2023-04-18T02:24:18.618Z,103032.34
2023-04-18T02:26:45.066Z,103069.06
2023-04-18T02:29:11.636Z,103070.59
2023-04-18T02:31:39.990Z,103067.22
2023-04-18T02:34:07.098Z,103074.47
2023-04-18T02:36:33.812Z,103067.75
2023-04-18T02:39:00.410Z,103056.50
2023-04-18T02:41:26.810Z,103072.56
2023-04-18T02:43:53.700Z,103066.38
2023-04-18T02:46:20.303Z,103072.50
2023-04-18T02:48:46.765Z,103064.25
2023-04-18T02:51:13.130Z,103066.28
2023-04-18T02:53:39.519Z,103070.38
2023-04-18T02:56:06.401Z,103060.63
2023-04-18T02:58:34.703Z,103078.19
2023-04-18T03:01:01.095Z,103062.78
2023-04-18T03:03:27.522Z,103075.22
2023-04-18T03:05:53.904Z,103076.47
2023-04-18T03:08:20.357Z,103083.03
2023-04-18T03:10:46.740Z,103084.44
2023-04-18T03:13:13.189Z,103077.84
2023-04-18T03:15:39.608Z,103079.00
2023-04-18T03:18:06.157Z,103081.19
2023-04-18T03:20:32.569Z,103081.28
2023-04-18T03:22:58.937Z,103080.19
2023-04-18T03:25:25.560Z,103074.13
2023-04-18T03:27:51.959Z,103042.41
2023-04-18T03:30:18.428Z,103043.25
2023-04-18T03:32:46.606Z,103047.84
2023-04-18T03:35:12.995Z,103056.44
2023-04-18T03:37:39.367Z,103085.47
2023-04-18T03:40:06.406Z,103081.41
2023-04-18T03:42:32.821Z,103091.38
2023-04-18T03:44:59.178Z,103082.22
2023-04-18T03:47:25.569Z,103097.56
2023-04-18T03:49:54.116Z,103093.38
2023-04-18T03:52:20.508Z,103097.47
2023-04-18T03:54:46.880Z,103096.69
2023-04-18T03:57:13.264Z,103094.16
2023-04-18T03:59:39.625Z,103108.41
2023-04-18T04:02:06.030Z,103096.19
2023-04-18T04:04:32.496Z,103098.41
2023-04-18T04:06:59.596Z,103104.94
2023-04-18T04:09:26.313Z,103100.72
2023-04-18T04:11:52.679Z,103107.53
2023-04-18T04:14:19.073Z,103100.00
2023-04-18T04:16:45.807Z,103098.66
2023-04-18T04:19:12.218Z,103107.53
2023-04-18T04:21:38.573Z,103113.00
2023-04-18T04:24:05.084Z,103108.50
2023-04-18T04:26:31.661Z,103105.09
2023-04-18T04:28:58.025Z,103112.03
2023-04-18T04:31:24.412Z,103104.66
2023-04-18T04:33:50.797Z,103108.59
2023-04-18T04:36:19.425Z,103112.56
2023-04-18T04:38:45.868Z,103114.31
2023-04-18T04:41:12.633Z,103110.84
2023-04-18T04:43:41.097Z,103116.19
2023-04-18T04:46:07.777Z,103117.28
2023-04-18T04:48:34.223Z,103112.94
2023-04-18T04:51:01.236Z,103120.19
2023-04-18T04:53:32.417Z,103119.84
2023-04-18T04:55:59.163Z,103125.00
2023-04-18T04:58:25.848Z,103131.03
2023-04-18T05:00:53.055Z,103127.03
2023-04-18T05:03:19.748Z,103120.38
2023-04-18T05:05:47.024Z,103127.28
2023-04-18T05:08:13.556Z,103123.25
2023-04-18T05:10:40.006Z,103126.84
2023-04-18T05:13:06.362Z,103125.47
2023-04-18T05:15:32.751Z,103126.28
2023-04-18T05:17:59.246Z,103122.63
2023-04-18T05:20:25.778Z,103120.19
2023-04-18T05:22:52.246Z,103124.38
2023-04-18T05:25:18.962Z,103130.59
2023-04-18T05:27:46.291Z,103134.16
2023-04-18T05:30:13.087Z,103122.50
2023-04-18T05:32:39.447Z,103131.94
2023-04-18T05:35:07.021Z,103123.34
2023-04-18T05:37:33.434Z,103132.97
2023-04-18T05:40:00.982Z,103105.53
2023-04-18T05:42:27.642Z,103144.38
2023-04-18T05:44:54.104Z,103145.34
2023-04-18T05:47:20.668Z,103146.72
2023-04-18T05:49:47.070Z,103141.38
2023-04-18T05:52:13.457Z,103135.34
2023-04-18T05:54:39.811Z,103145.13
2023-04-18T05:57:06.276Z,103144.06
2023-04-18T05:59:32.744Z,103143.72
2023-04-18T06:01:59.131Z,103146.41
2023-04-18T06:04:25.672Z,103149.31
2023-04-18T06:06:52.403Z,103147.06
2023-04-18T06:09:18.813Z,103147.38
2023-04-18T06:11:45.342Z,103147.03
2023-04-18T06:14:12.086Z,103148.66
2023-04-18T06:16:38.774Z,103158.19
2023-04-18T06:19:05.369Z,103153.31
2023-04-18T06:21:32.017Z,103138.53
2023-04-18T06:23:58.411Z,103140.78
2023-04-18T06:26:24.794Z,103148.94
2023-04-18T06:28:51.179Z,103141.06
2023-04-18T06:31:17.705Z,103149.75
2023-04-18T06:33:44.170Z,103144.41
2023-04-18T06:36:10.547Z,103152.75
2023-04-18T06:38:36.956Z,103133.81
2023-04-18T06:41:03.484Z,103142.78
2023-04-18T06:43:29.914Z,103151.00
2023-04-18T06:45:56.782Z,103115.25
2023-04-18T06:48:23.323Z,103166.84
2023-04-18T06:50:49.766Z,103157.25
2023-04-18T06:53:16.243Z,103164.13
2023-04-18T06:55:42.742Z,103162.41
2023-04-18T06:58:10.070Z,103167.47
2023-04-18T07:00:36.568Z,103169.34
2023-04-18T07:03:11.120Z,103167.16
2023-04-18T07:05:40.897Z,103169.44
2023-04-18T07:08:07.866Z,103168.13
2023-04-18T07:10:34.260Z,103162.91
2023-04-18T07:13:00.688Z,103156.41
2023-04-18T07:15:27.112Z,103154.97
2023-04-18T07:17:53.539Z,103153.53
2023-04-18T07:20:19.996Z,103154.47
2023-04-18T07:22:48.061Z,103151.69
2023-04-18T07:25:14.538Z,103131.13
2023-04-18T07:27:41.044Z,103146.13
2023-04-18T07:30:08.050Z,103141.13
2023-04-18T07:32:34.504Z,103136.06
2023-04-18T07:35:01.253Z,103139.19
2023-04-18T07:37:27.710Z,103149.72
2023-04-18T07:39:54.107Z,103148.06
2023-04-18T07:42:20.564Z,103142.91
2023-04-18T07:44:47.455Z,103137.88
2023-04-18T07:47:13.831Z,103143.28
2023-04-18T07:49:40.262Z,103160.47
2023-04-18T07:52:07.092Z,103159.78
2023-04-18T07:54:33.473Z,103164.94
2023-04-18T07:56:59.933Z,103168.84
2023-04-18T07:59:27.220Z,103160.31
2023-04-18T08:01:53.654Z,103155.88
2023-04-18T08:04:20.280Z,103130.59
2023-04-18T08:06:46.813Z,103156.06
2023-04-18T08:09:13.347Z,103160.59
2023-04-18T08:11:42.241Z,103169.72
2023-04-18T08:14:08.630Z,103166.50
2023-04-18T08:16:35.031Z,103163.56
2023-04-18T08:19:01.406Z,103164.00
2023-04-18T08:21:27.798Z,103183.94
2023-04-18T08:23:54.155Z,103174.13
2023-04-18T08:26:21.815Z,103173.94
2023-04-18T08:28:48.260Z,103175.19
2023-04-18T08:31:15.355Z,103170.53
2023-04-18T08:33:41.954Z,103166.34
2023-04-18T08:36:08.792Z,103163.59
2023-04-18T08:38:35.424Z,103163.97
2023-04-18T08:41:01.850Z,103170.59
2023-04-18T08:43:30.119Z,103158.31
2023-04-18T08:46:00.667Z,103182.97
2023-04-18T08:48:30.572Z,103185.66
2023-04-18T08:50:58.844Z,103188.06
2023-04-18T08:53:26.685Z,103145.06
2023-04-18T08:55:57.028Z,103179.22
2023-04-18T08:58:24.344Z,103171.94
2023-04-18T09:00:54.831Z,103173.09
2023-04-18T09:03:39.353Z,103173.03
2023-04-18T09:06:08.379Z,103165.31
2023-04-18T09:08:35.449Z,103167.50
2023-04-18T09:11:28.918Z,103150.78
2023-04-18T09:13:58.580Z,103158.19
2023-04-18T09:16:27.477Z,103157.81
2023-04-18T09:19:13.714Z,103136.78
2023-04-18T09:21:42.339Z,103172.38
2023-04-18T09:24:29.362Z,103159.72
2023-04-18T09:26:58.586Z,103160.09
2023-04-18T09:29:46.633Z,103168.50
2023-04-18T09:32:29.182Z,103163.31
2023-04-18T09:35:03.981Z,103165.19
2023-04-18T09:37:30.988Z,103157.97
2023-04-18T09:39:57.424Z,103148.13
2023-04-18T09:42:24.635Z,103139.09
2023-04-18T09:45:04.806Z,103162.56
2023-04-18T09:47:34.822Z,103148.81
2023-04-18T09:50:06.470Z,103151.66
2023-04-18T09:52:43.573Z,103149.88
2023-04-18T09:55:13.050Z,103142.94
2023-04-18T09:57:42.926Z,103146.63
2023-04-18T10:00:17.273Z,103149.75
2023-04-18T10:02:59.298Z,103145.63
2023-04-18T10:05:28.579Z,103126.41
2023-04-18T10:07:55.130Z,103103.78
2023-04-18T10:10:21.722Z,103136.31
2023-04-18T10:12:50.849Z,103131.00
2023-04-18T10:15:19.887Z,103133.81
2023-04-18T10:18:03.759Z,103131.69
2023-04-18T10:20:33.492Z,103139.44
2023-04-18T10:23:00.517Z,103139.03
2023-04-18T10:25:39.275Z,103139.69
2023-04-18T10:28:07.214Z,103134.56
2023-04-18T10:31:02.902Z,103139.00
2023-04-18T10:33:41.079Z,103143.97
2023-04-18T10:36:08.965Z,103126.41
2023-04-18T10:38:38.843Z,103136.13
2023-04-18T10:41:14.454Z,103131.88
2023-04-18T10:44:08.970Z,103126.59
2023-04-18T10:46:36.581Z,103117.38
2023-04-18T10:49:31.139Z,103122.84
2023-04-18T10:52:00.637Z,103127.41
2023-04-18T10:54:48.540Z,103118.91
2023-04-18T10:57:15.392Z,103135.75
2023-04-18T10:59:43.382Z,103103.09
2023-04-18T11:02:21.830Z,103134.22
2023-04-18T11:04:55.697Z,103121.97
2023-04-18T11:07:35.950Z,103118.97
2023-04-18T11:10:03.586Z,103118.91
2023-04-18T11:12:36.287Z,103101.03
2023-04-18T11:15:09.353Z,103088.78
2023-04-18T11:17:35.889Z,103095.19
2023-04-18T11:20:12.615Z,103111.09
2023-04-18T11:22:49.201Z,103101.22
2023-04-18T11:25:17.052Z,103101.22
2023-04-18T11:27:45.187Z,103093.16
2023-04-18T11:30:12.606Z,103092.47
2023-04-18T11:32:39.421Z,103091.25
2023-04-18T11:35:08.691Z,103085.75
2023-04-18T11:37:36.071Z,103081.56
2023-04-18T11:40:03.089Z,103093.41
2023-04-18T11:42:33.206Z,103102.53
2023-04-18T11:45:00.013Z,103093.69
2023-04-18T11:47:31.646Z,103079.28
2023-04-18T11:50:00.259Z,103091.84
2023-04-18T11:52:28.587Z,103056.31
2023-04-18T11:54:56.524Z,103088.31
2023-04-18T11:57:22.925Z,103093.91
2023-04-18T11:59:51.113Z,103097.31
2023-04-18T12:02:17.947Z,103075.81
2023-04-18T12:04:53.086Z,103080.38
2023-04-18T12:07:49.703Z,103079.13
2023-04-18T12:10:21.886Z,103083.25
2023-04-18T12:12:49.658Z,103077.66
2023-04-18T12:15:17.848Z,103066.75
2023-04-18T12:17:45.816Z,103076.13
2023-04-18T12:20:13.411Z,103065.41
2023-04-18T12:22:51.308Z,103067.72
2023-04-18T12:25:23.530Z,103074.50
2023-04-18T12:27:56.779Z,103071.06
2023-04-18T12:30:25.658Z,103068.69
2023-04-18T12:32:54.539Z,103058.72
2023-04-18T12:35:22.306Z,103062.94
2023-04-18T12:37:49.874Z,103069.06
2023-04-18T12:40:18.802Z,103065.50
2023-04-18T12:42:47.429Z,103059.59
2023-04-18T12:45:15.103Z,103070.59
2023-04-18T12:47:43.248Z,103064.81
2023-04-18T12:50:11.747Z,103044.56
2023-04-18T12:52:40.632Z,103044.75
2023-04-18T12:55:07.668Z,103050.03
2023-04-18T12:57:34.210Z,103051.06
2023-04-18T13:00:00.865Z,103042.59
2023-04-18T13:02:29.199Z,103020.16
2023-04-18T13:04:57.187Z,103046.78
2023-04-18T13:07:24.185Z,103053.91
2023-04-18T13:09:50.600Z,103053.34
2023-04-18T13:12:16.963Z,103059.22
2023-04-18T13:14:43.361Z,103050.38
2023-04-18T13:17:09.818Z,103052.75
2023-04-18T13:19:36.412Z,103064.69
2023-04-18T13:22:02.943Z,103058.19
2023-04-18T13:24:29.307Z,103059.16
2023-04-18T13:26:56.535Z,103069.47
2023-04-18T13:29:23.058Z,103075.84
2023-04-18T13:31:49.497Z,103041.00
2023-04-18T13:34:15.996Z,103052.69
2023-04-18T13:36:42.781Z,103040.09
2023-04-18T13:39:10.518Z,103070.88
2023-04-18T13:41:36.902Z,103062.25
2023-04-18T13:44:03.342Z,103067.16
2023-04-18T13:46:30.902Z,103051.06
2023-04-18T13:48:57.437Z,103051.69
2023-04-18T13:51:23.828Z,103041.28
2023-04-18T13:53:51.536Z,103039.25
2023-04-18T13:56:17.901Z,103057.31
2023-04-18T13:58:44.261Z,103058.84
2023-04-18T14:01:10.783Z,103053.44
2023-04-18T14:03:38.813Z,103053.81
2023-04-18T14:06:06.513Z,103041.09
2023-04-18T14:08:34.069Z,103052.66
2023-04-18T14:11:00.516Z,103058.69
2023-04-18T14:13:27.103Z,103057.13
2023-04-18T14:15:54.002Z,103046.06
2023-04-18T14:18:21.748Z,103045.69
2023-04-18T14:20:48.628Z,103055.38
2023-04-18T14:23:15.899Z,103057.84
2023-04-18T14:25:42.876Z,103049.16
2023-04-18T14:28:11.965Z,103052.53
2023-04-18T14:30:39.708Z,103052.22
2023-04-18T14:33:07.240Z,103044.06
2023-04-18T14:35:33.644Z,103057.00
2023-04-18T14:38:00.003Z,103065.47
2023-04-18T14:40:26.775Z,103046.44
2023-04-18T14:42:53.151Z,103051.38
2023-04-18T14:45:19.555Z,103054.22
2023-04-18T14:47:46.068Z,103039.53
2023-04-18T14:50:12.630Z,103045.63
2023-04-18T14:52:39.815Z,103046.22
2023-04-18T14:55:07.789Z,103041.94
2023-04-18T14:57:36.627Z,103047.81
2023-04-18T15:00:05.497Z,103016.44
2023-04-18T15:02:32.229Z,103047.47
2023-04-18T15:04:59.185Z,103058.41
2023-04-18T15:07:25.678Z,103061.88
2023-04-18T15:09:52.112Z,103052.31
2023-04-18T15:12:18.547Z,103032.56
2023-04-18T15:14:44.970Z,103043.84
2023-04-18T15:17:11.308Z,103047.13
2023-04-18T15:19:37.657Z,103022.16
2023-04-18T15:22:04.244Z,103050.75
2023-04-18T15:24:30.640Z,103047.31
2023-04-18T15:26:58.654Z,103041.56
2023-04-18T15:29:25.224Z,103024.03
2023-04-18T15:31:51.655Z,103047.81
2023-04-18T15:34:18.117Z,103041.16
2023-04-18T15:36:46.475Z,103041.66
2023-04-18T15:39:13.126Z,103046.41
2023-04-18T15:41:41.980Z,103024.81
2023-04-18T15:44:08.490Z,103039.72
2023-04-18T15:46:38.042Z,103034.28
2023-04-18T15:49:05.065Z,103044.00
2023-04-18T15:51:31.472Z,103030.47
2023-04-18T15:53:57.841Z,103046.91
2023-04-18T15:56:26.048Z,103048.06
2023-04-18T15:58:52.852Z,103053.00
2023-04-18T16:01:19.274Z,103051.72
2023-04-18T16:03:45.722Z,103059.41
2023-04-18T16:06:14.184Z,103054.28
2023-04-18T16:08:40.761Z,103035.41
2023-04-18T16:11:10.271Z,103046.72
2023-04-18T16:13:38.266Z,103048.06
2023-04-18T16:16:05.725Z,103064.66
2023-04-18T16:18:32.256Z,103044.94
2023-04-18T16:20:58.979Z,103066.44
2023-04-18T16:23:26.586Z,103066.13
2023-04-18T16:25:55.215Z,103062.88
2023-04-18T16:28:22.289Z,103058.44
2023-04-18T16:30:48.944Z,103063.34
2023-04-18T16:33:16.008Z,103050.84
2023-04-18T16:35:42.430Z,103067.28
2023-04-18T16:38:08.819Z,103054.91
2023-04-18T16:40:35.705Z,103074.75
2023-04-18T16:43:02.294Z,103072.06
2023-04-18T16:45:28.669Z,103060.94
2023-04-18T16:47:55.130Z,103068.41
2023-04-18T16:50:22.423Z,103066.41
2023-04-18T16:52:48.891Z,103039.28
2023-04-18T16:55:15.323Z,103062.47
2023-04-18T16:57:41.701Z,103045.78
2023-04-18T17:00:09.908Z,103066.97
2023-04-18T17:02:36.489Z,103055.59
2023-04-18T17:05:03.086Z,103030.78
2023-04-18T17:07:30.324Z,103059.06
2023-04-18T17:09:56.705Z,103055.44
2023-04-18T17:12:23.062Z,103056.91
2023-04-18T17:14:49.475Z,103066.19
2023-04-18T17:17:15.909Z,103067.56
2023-04-18T17:19:42.270Z,103079.06
2023-04-18T17:22:08.770Z,103072.66
2023-04-18T17:24:35.265Z,103078.59
2023-04-18T17:27:01.729Z,103063.88
2023-04-18T17:29:28.068Z,103060.78
2023-04-18T17:31:54.548Z,103070.63
2023-04-18T17:34:21.291Z,103078.00
2023-04-18T17:36:47.974Z,103073.16
2023-04-18T17:39:16.305Z,103080.56
2023-04-18T17:41:45.028Z,103084.56
2023-04-18T17:44:11.436Z,103067.78
2023-04-18T17:46:37.956Z,103073.97
2023-04-18T17:49:04.753Z,103073.56
2023-04-18T17:51:31.231Z,103066.00
2023-04-18T17:53:57.765Z,103080.75
2023-04-18T17:56:24.275Z,103084.16
2023-04-18T17:58:51.389Z,103080.75
2023-04-18T18:01:19.910Z,103090.13
2023-04-18T18:03:48.195Z,103086.53
2023-04-18T18:06:15.296Z,103087.78
2023-04-18T18:08:43.050Z,103090.59
2023-04-18T18:11:10.610Z,103085.72
2023-04-18T18:13:38.858Z,103092.31
2023-04-18T18:16:06.181Z,103096.53
2023-04-18T18:18:32.729Z,103098.31
2023-04-18T18:20:59.161Z,103094.97
2023-04-18T18:23:25.581Z,103099.81
2023-04-18T18:25:52.110Z,103092.81
2023-04-18T18:28:18.550Z,103093.56
2023-04-18T18:30:44.914Z,103103.78
2023-04-18T18:33:11.278Z,103106.09
2023-04-18T18:35:37.640Z,103104.13
2023-04-18T18:38:04.142Z,103101.41
2023-04-18T18:40:30.598Z,103101.69
2023-04-18T18:42:57.290Z,103098.59
2023-04-18T18:45:23.814Z,103111.28
2023-04-18T18:47:51.024Z,103117.59
2023-04-18T18:50:17.643Z,103115.28
2023-04-18T18:52:44.125Z,103118.69
2023-04-18T18:55:11.135Z,103125.91
2023-04-18T18:57:37.764Z,103118.97
2023-04-18T19:00:09.281Z,103120.06
2023-04-18T19:02:36.000Z,103102.56
2023-04-18T19:05:03.055Z,103094.75
2023-04-18T19:07:30.174Z,103120.34
2023-04-18T19:09:56.782Z,103136.13
2023-04-18T19:12:23.242Z,103132.97
2023-04-18T19:14:49.762Z,103135.63
2023-04-18T19:17:18.462Z,103127.91
2023-04-18T19:19:44.838Z,103139.91
2023-04-18T19:22:11.359Z,103138.06
2023-04-18T19:24:37.740Z,103132.22
2023-04-18T19:27:04.321Z,103130.25
2023-04-18T19:29:32.777Z,103136.38
2023-04-18T19:31:59.534Z,103135.41
2023-04-18T19:34:26.061Z,103129.53
2023-04-18T19:36:52.473Z,103143.25
2023-04-18T19:39:18.829Z,103132.47
2023-04-18T19:41:45.977Z,103144.22
2023-04-18T19:44:12.388Z,103146.91
2023-04-18T19:46:39.057Z,103139.31
2023-04-18T19:49:05.905Z,103144.22
2023-04-18T19:51:32.382Z,103142.97
2023-04-18T19:53:58.826Z,103132.97
2023-04-18T19:56:25.265Z,103143.47
2023-04-18T19:58:51.657Z,103143.66
2023-04-18T20:01:21.689Z,103152.97
2023-04-18T20:03:48.384Z,103152.66
2023-04-18T20:06:16.731Z,103147.13
2023-04-18T20:08:43.136Z,103134.25
2023-04-18T20:11:11.203Z,103155.03
2023-04-18T20:13:38.072Z,103157.25
2023-04-18T20:16:05.539Z,103158.50
2023-04-18T20:18:32.411Z,103159.06
2023-04-18T20:20:58.919Z,103134.69
2023-04-18T20:23:25.482Z,103152.44
2023-04-18T20:25:51.860Z,103166.25
2023-04-18T20:28:18.234Z,103136.88
2023-04-18T20:30:45.620Z,103166.13
2023-04-18T20:33:12.084Z,103166.38
2023-04-18T20:35:38.807Z,103174.56
2023-04-18T20:38:07.126Z,103178.69
2023-04-18T20:40:34.162Z,103172.38
2023-04-18T20:43:02.893Z,103171.28
2023-04-18T20:45:29.743Z,103170.31
2023-04-18T20:47:58.761Z,103171.00
2023-04-18T20:50:25.369Z,103169.75
2023-04-18T20:52:51.716Z,103166.59
2023-04-18T20:55:18.238Z,103177.59
2023-04-18T20:57:44.699Z,103174.41
2023-04-18T21:00:11.860Z,103174.56
2023-04-18T21:02:38.398Z,103178.47
2023-04-18T21:05:05.260Z,103185.19
2023-04-18T21:07:32.130Z,103175.50
2023-04-18T21:09:58.497Z,103171.25
2023-04-18T21:12:24.884Z,103167.44
2023-04-18T21:14:51.278Z,103181.91
2023-04-18T21:17:17.723Z,103181.78
2023-04-18T21:19:47.949Z,103183.75
2023-04-18T21:22:15.815Z,103163.63
2023-04-18T21:24:42.405Z,103186.50
2023-04-18T21:27:10.657Z,103195.19
2023-04-18T21:29:37.082Z,103195.69
2023-04-18T21:32:03.596Z,103192.84
2023-04-18T21:34:29.971Z,103189.59
2023-04-18T21:36:57.691Z,103193.66
2023-04-18T21:39:24.050Z,103196.75
2023-04-18T21:41:50.543Z,103191.97
2023-04-18T21:44:18.791Z,103185.13
2023-04-18T21:46:45.458Z,103178.22
2023-04-18T21:49:11.915Z,103188.28
2023-04-18T21:51:38.383Z,103184.75
2023-04-18T21:54:07.193Z,103182.91
2023-04-18T21:56:33.637Z,103178.25
2023-04-18T21:59:00.012Z,103191.94
2023-04-18T22:01:26.453Z,103189.22
2023-04-18T22:03:53.124Z,103190.91
2023-04-18T22:06:20.716Z,103170.09
2023-04-18T22:08:48.108Z,103161.53
2023-04-18T22:11:15.663Z,103183.66
2023-04-18T22:13:45.061Z,103187.44
2023-04-18T22:16:11.830Z,103182.06
2023-04-18T22:18:38.297Z,103181.53
2023-04-18T22:21:04.775Z,103190.84
2023-04-18T22:23:31.219Z,103195.50
2023-04-18T22:25:57.757Z,103181.72
2023-04-18T22:28:24.124Z,103183.47
2023-04-18T22:30:51.173Z,103192.06
2023-04-18T22:33:17.608Z,103191.09
2023-04-18T22:35:44.035Z,103186.84
2023-04-18T22:38:10.536Z,103184.13
2023-04-18T22:40:36.963Z,103177.66
2023-04-18T22:43:03.330Z,103194.44
2023-04-18T22:45:29.692Z,103185.63
2023-04-18T22:47:56.152Z,103190.38
2023-04-18T22:50:22.616Z,103182.50
2023-04-18T22:52:49.064Z,103190.63
2023-04-18T22:55:16.439Z,103182.25
2023-04-18T22:57:42.860Z,103194.78
2023-04-18T23:00:10.137Z,103188.59
2023-04-18T23:02:36.903Z,103193.63
2023-04-18T23:05:05.108Z,103176.94
2023-04-18T23:07:31.616Z,103189.13
2023-04-18T23:09:57.986Z,103200.94
2023-04-18T23:12:24.597Z,103182.94
2023-04-18T23:14:51.017Z,103203.31
2023-04-18T23:17:17.399Z,103198.81
2023-04-18T23:19:45.081Z,103183.06
2023-04-18T23:22:11.508Z,103195.38
2023-04-18T23:24:37.917Z,103200.97
2023-04-18T23:27:04.367Z,103192.50
2023-04-18T23:29:30.724Z,103194.13
2023-04-18T23:31:57.131Z,103188.34
2023-04-18T23:34:23.627Z,103178.34
2023-04-18T23:36:50.113Z,103178.91
2023-04-18T23:39:18.488Z,103181.16
2023-04-18T23:41:45.538Z,103182.66
2023-04-18T23:44:11.899Z,103181.03
2023-04-18T23:46:38.313Z,103190.34
2023-04-18T23:49:04.670Z,103190.78
2023-04-18T23:51:31.050Z,103181.88
2023-04-18T23:53:57.428Z,103183.28
2023-04-18T23:56:23.888Z,103176.50
2023-04-18T23:58:50.505Z,103150.78
